Time;durP1;ratioP1;P1;durP2;ratioP2;P2;SDS_P1;SDS_P2;PMS_P1;PMS_P2;Temp;Humidity;BMP_temperature;BMP_pressure;BME280_temperature;BME280_humidity;BME280_pressure;Samples;Min_cycle;Max_cycle;Signal;HPM_P1;HPM_P2
2021/01/11 00:00:18;;;;;;;49.53;24.70;;;;;;;-3.26;69.24;96109.88;4976565;28;20067;-45
2021/01/11 00:02:44;;;;;;;47.58;22.80;;;;;;;-3.30;68.98;96112.19;4992713;28;20570;-47
2021/01/11 00:05:12;;;;;;;50.92;23.50;;;;;;;-3.41;68.96;96115.69;5015197;28;20057;-46
2021/01/11 00:07:43;;;;;;;47.70;23.05;;;;;;;-3.64;69.15;96112.16;5015206;28;20434;-46
2021/01/11 00:10:10;;;;;;;55.03;24.13;;;;;;;-3.85;69.90;96105.69;4977399;28;20109;-46
2021/01/11 00:12:38;;;;;;;55.60;24.75;;;;;;;-4.00;70.23;96103.59;4976442;28;20125;-46
2021/01/11 00:15:08;;;;;;;52.05;22.98;;;;;;;-4.50;70.85;96113.94;4976348;28;20133;-45
2021/01/11 00:17:35;;;;;;;55.15;24.15;;;;;;;-4.54;71.76;96110.97;4976596;28;20045;-46
2021/01/11 00:20:07;;;;;;;56.42;25.23;;;;;;;-4.37;72.17;96116.31;4996625;28;20049;-46
2021/01/11 00:22:34;;;;;;;53.25;24.73;;;;;;;-4.37;71.04;96120.81;5015346;28;20050;-46
2021/01/11 00:25:06;;;;;;;48.17;22.60;;;;;;;-4.64;71.58;96118.66;5015342;28;20056;-47
2021/01/11 00:27:32;;;;;;;54.55;24.38;;;;;;;-4.63;72.08;96125.53;4992120;28;20062;-47
2021/01/11 00:30:00;;;;;;;54.22;24.27;;;;;;;-4.74;72.06;96113.97;4976369;28;20047;-48
2021/01/11 00:32:26;;;;;;;55.40;24.88;;;;;;;-4.63;72.17;96114.97;4976121;28;20452;-48
2021/01/11 00:34:52;;;;;;;48.33;23.23;;;;;;;-4.48;72.02;96119.78;4976134;28;20055;-46
2021/01/11 00:37:19;;;;;;;52.90;23.50;;;;;;;-4.56;71.52;96128.84;4976410;28;20054;-50
2021/01/11 00:39:45;;;;;;;51.58;24.38;;;;;;;-4.60;71.57;96117.16;4975568;28;20050;-45
2021/01/11 00:42:12;;;;;;;58.22;24.85;;;;;;;-4.66;71.91;96112.00;4975654;28;20105;-45
2021/01/11 00:44:38;;;;;;;50.80;23.60;;;;;;;-4.79;72.08;96115.69;4990968;28;20073;-47
2021/01/11 00:47:05;;;;;;;57.22;25.27;;;;;;;-4.90;72.14;96114.66;4978604;28;20049;-47
2021/01/11 00:49:31;;;;;;;56.50;24.65;;;;;;;-5.09;73.33;96119.25;4975659;28;20057;-47
2021/01/11 00:51:58;;;;;;;57.63;25.20;;;;;;;-5.67;74.46;96104.94;4975553;28;20055;-46
2021/01/11 00:54:26;;;;;;;55.05;23.77;;;;;;;-5.34;74.15;96118.63;4958226;28;20054;-46
2021/01/11 00:56:55;;;;;;;57.17;25.20;;;;;;;-5.46;75.04;96121.25;4958655;28;20074;-45
2021/01/11 00:59:43;;;;;;;60.35;27.05;;;;;;;-5.78;76.56;96118.09;4957843;28;20058;-45
2021/01/11 01:02:11;;;;;;;57.13;24.45;;;;;;;-6.01;76.71;96130.19;4957937;28;20046;-45
2021/01/11 01:04:37;;;;;;;54.92;24.50;;;;;;;-6.12;76.95;96128.28;4975472;28;20101;-48
2021/01/11 01:07:04;;;;;;;59.80;25.77;;;;;;;-6.26;77.79;96105.78;4975609;28;20469;-45
2021/01/11 01:09:31;;;;;;;64.05;26.30;;;;;;;-6.45;78.21;96124.22;4975026;28;20225;-46
2021/01/11 01:11:57;;;;;;;62.92;24.77;;;;;;;-6.51;79.61;96129.56;4975129;28;20058;-47
2021/01/11 01:14:24;;;;;;;56.00;24.77;;;;;;;-6.07;77.93;96138.97;4974438;28;20054;-46
2021/01/11 01:16:51;;;;;;;55.50;24.63;;;;;;;-5.79;76.69;96140.19;4975771;28;20079;-46
2021/01/11 01:19:18;;;;;;;56.13;25.60;;;;;;;-5.77;76.56;96140.78;4975131;28;20109;-46
2021/01/11 01:21:44;;;;;;;59.65;26.45;;;;;;;-5.97;77.29;96131.34;4974975;28;20125;-48
2021/01/11 01:24:10;;;;;;;57.97;24.55;;;;;;;-5.91;77.15;96137.50;4975038;28;20050;-46
2021/01/11 01:26:37;;;;;;;56.70;26.10;;;;;;;-5.87;76.79;96134.19;4975206;28;20078;-45
2021/01/11 01:29:04;;;;;;;65.45;27.52;;;;;;;-6.09;77.93;96141.00;4974310;28;20047;-46
2021/01/11 01:31:30;;;;;;;65.28;26.00;;;;;;;-6.27;78.57;96117.31;4974802;28;20058;-45
2021/01/11 01:33:57;;;;;;;62.05;25.50;;;;;;;-6.18;78.45;96140.50;4974719;28;20055;-47
2021/01/11 01:36:23;;;;;;;62.25;25.65;;;;;;;-6.29;78.35;96122.00;4975107;28;20074;-47
2021/01/11 01:38:50;;;;;;;93.28;29.92;;;;;;;-6.20;79.20;96137.28;4974289;28;20043;-46
2021/01/11 01:41:16;;;;;;;98.82;29.58;;;;;;;-6.25;79.56;96137.13;4974596;28;20504;-45
2021/01/11 01:43:43;;;;;;;87.07;30.35;;;;;;;-6.48;80.61;96118.59;4982206;28;20062;-45
2021/01/11 01:46:14;;;;;;;85.38;31.58;;;;;;;-6.51;80.98;96119.81;4976289;28;20078;-47
2021/01/11 01:48:42;;;;;;;85.95;31.73;;;;;;;-6.53;81.31;96128.97;4974487;28;20042;-47
2021/01/11 01:51:09;;;;;;;78.97;30.05;;;;;;;-6.52;81.13;96123.50;4974452;28;20061;-46
2021/01/11 01:53:36;;;;;;;75.22;28.95;;;;;;;-6.54;81.03;96125.53;4974635;28;20444;-45
2021/01/11 01:56:04;;;;;;;95.43;31.95;;;;;;;-6.51;80.98;96127.72;4974575;28;20063;-47
2021/01/11 01:58:30;;;;;;;73.10;27.52;;;;;;;-6.38;80.73;96127.56;4974267;28;20043;-45
2021/01/11 02:00:57;;;;;;;65.78;26.80;;;;;;;-6.24;79.77;96108.97;4974008;28;20078;-45
2021/01/11 02:03:24;;;;;;;86.03;32.65;;;;;;;-6.03;78.37;96116.41;4956961;28;20050;-47
2021/01/11 02:05:50;;;;;;;79.07;29.48;;;;;;;-5.83;78.37;96120.56;4974224;28;20062;-46
2021/01/11 02:08:23;;;;;;;75.43;29.10;;;;;;;-5.88;77.99;96108.09;4974347;28;20086;-47
2021/01/11 02:10:56;;;;;;;;;;;;;;;-5.71;77.66;96119.59;4974697;28;20047;-45
2021/01/11 02:13:31;;;;;;;66.32;26.85;;;;;;;-5.83;78.27;96115.31;4973982;28;19965;-46
2021/01/11 02:16:25;;;;;;;67.22;25.30;;;;;;;-5.76;77.56;96106.28;4973913;28;20062;-45
2021/01/11 02:18:56;;;;;;;68.97;26.95;;;;;;;-6.00;77.28;96068.56;4973541;28;20046;-45
2021/01/11 02:21:31;;;;;;;68.38;28.05;;;;;;;-5.58;76.76;96102.78;4974079;28;20221;-45
2021/01/11 02:24:04;;;;;;;67.97;26.40;;;;;;;-5.56;76.52;96095.44;4941198;28;20186;-45
2021/01/11 02:26:49;;;;;;;69.70;28.13;;;;;;;-5.57;76.64;96104.38;4973769;28;20372;-44
2021/01/11 02:29:32;;;;;;;73.82;28.27;;;;;;;-5.62;76.65;96104.28;4973862;28;20047;-46
2021/01/11 02:31:59;;;;;;;74.25;27.95;;;;;;;-5.76;77.07;96100.19;4973633;28;20062;-44
2021/01/11 02:34:28;;;;;;;80.25;29.98;;;;;;;-5.89;78.00;96099.34;4973780;28;20117;-46
2021/01/11 02:36:55;;;;;;;65.25;25.38;;;;;;;-5.76;77.34;96100.19;4973554;28;20098;-45
2021/01/11 02:39:22;;;;;;;68.18;26.60;;;;;;;-5.79;77.01;96075.09;4973524;28;20078;-45
2021/01/11 02:41:48;;;;;;;70.13;27.27;;;;;;;-5.61;76.83;96086.63;4973407;28;20477;-45
2021/01/11 02:44:15;;;;;;;74.90;28.25;;;;;;;-5.55;76.49;96089.16;4968011;28;20141;-45
2021/01/11 02:46:41;;;;;;;66.82;25.38;;;;;;;-5.55;76.13;96080.44;4986275;28;20129;-47
2021/01/11 02:49:20;;;;;;;67.15;27.60;;;;;;;-5.47;75.96;96088.00;4973272;28;20050;-45
2021/01/11 02:52:14;;;;;;;62.40;26.20;;;;;;;-5.37;75.18;96092.72;4973800;28;20089;-45
2021/01/11 02:54:49;;;;;;;61.30;25.40;;;;;;;-5.34;74.78;96089.63;4973424;28;20137;-46
2021/01/11 02:57:26;;;;;;;63.88;25.98;;;;;;;-5.54;75.20;96090.75;4973320;28;20082;-46
2021/01/11 03:00:00;;;;;;;68.78;25.48;;;;;;;-5.66;76.70;96089.91;4972847;28;20082;-47
2021/01/11 03:02:31;;;;;;;72.40;26.98;;;;;;;-5.71;77.68;96095.88;4973147;28;20129;-47
2021/01/11 03:04:58;;;;;;;74.32;26.75;;;;;;;-5.55;77.39;96094.41;4974527;28;20084;-48
2021/01/11 03:07:25;;;;;;;66.78;26.70;;;;;;;-5.41;76.49;96100.28;4978357;28;20137;-48
2021/01/11 03:09:51;;;;;;;60.85;26.10;;;;;;;-5.16;75.76;96100.09;4992082;28;20043;-47
2021/01/11 03:12:18;;;;;;;67.47;27.48;;;;;;;-5.21;75.21;96086.78;4975104;28;20507;-47
2021/01/11 03:14:44;;;;;;;63.15;25.25;;;;;;;-5.01;75.13;96100.41;4992397;28;20124;-46
2021/01/11 03:17:11;;;;;;;67.10;26.17;;;;;;;-4.99;74.83;96097.56;4981986;28;20113;-47
2021/01/11 03:19:37;;;;;;;66.70;25.83;;;;;;;-4.98;74.56;96081.50;4972361;28;20130;-47
2021/01/11 03:22:04;;;;;;;66.55;24.98;;;;;;;-4.82;74.80;96105.59;4972949;28;20145;-46
2021/01/11 03:24:30;;;;;;;65.38;25.65;;;;;;;-4.97;75.54;96103.44;4973060;28;20066;-47
2021/01/11 03:27:00;;;;;;;65.63;25.05;;;;;;;-4.96;75.69;96103.19;4972949;28;20055;-46
2021/01/11 03:29:27;;;;;;;64.50;26.23;;;;;;;-5.17;76.24;96088.75;4970889;28;20520;-44
2021/01/11 03:31:54;;;;;;;60.70;23.73;;;;;;;-5.16;76.83;96100.09;4955336;28;20051;-43
2021/01/11 03:34:20;;;;;;;60.55;24.50;;;;;;;-5.24;77.13;96093.31;4972358;28;20126;-45
2021/01/11 03:36:47;;;;;;;58.47;24.13;;;;;;;-5.11;76.85;96107.31;4972395;28;20078;-49
2021/01/11 03:39:13;;;;;;;62.65;23.95;;;;;;;-5.05;76.43;96107.19;4972109;28;20051;-46
2021/01/11 03:41:41;;;;;;;67.47;24.83;;;;;;;-5.15;77.05;96095.63;4972548;28;20134;-44
2021/01/11 03:44:09;;;;;;;64.15;24.77;;;;;;;-5.28;77.11;96096.63;4983519;28;20054;-44
2021/01/11 03:46:36;;;;;;;59.78;24.33;;;;;;;-5.22;77.35;96099.16;4979013;28;20047;-47
2021/01/11 03:49:04;;;;;;;61.55;25.00;;;;;;;-5.29;77.44;96095.03;4973004;28;20388;-45
2021/01/11 03:51:32;;;;;;;63.10;25.33;;;;;;;-5.28;78.23;96096.63;4972818;28;20109;-45
2021/01/11 03:53:59;;;;;;;60.58;24.10;;;;;;;-5.14;76.89;96095.38;4955211;28;20078;-45
2021/01/11 03:56:26;;;;;;;56.72;23.63;;;;;;;-5.15;76.78;96092.97;4972374;28;20536;-45
2021/01/11 03:58:52;;;;;;;63.03;26.65;;;;;;;-5.26;77.16;96078.75;4954300;28;20105;-45
2021/01/11 04:01:18;;;;;;;62.25;24.73;;;;;;;-5.36;77.04;96078.50;4972361;28;20078;-46
2021/01/11 04:03:45;;;;;;;62.90;25.30;;;;;;;-4.91;76.11;96086.66;4955589;28;20046;-44
2021/01/11 04:06:11;;;;;;;64.40;24.85;;;;;;;-4.82;75.81;96080.00;4972843;28;20054;-45
2021/01/11 04:08:38;;;;;;;67.50;24.92;;;;;;;-4.83;75.08;96080.25;4954725;28;20124;-45
2021/01/11 04:11:04;;;;;;;65.72;24.92;;;;;;;-5.26;76.58;96086.66;4972254;28;20089;-46
2021/01/11 04:13:30;;;;;;;62.42;25.73;;;;;;;-5.34;77.59;96081.72;4972409;28;20054;-44
2021/01/11 04:15:57;;;;;;;61.42;24.70;;;;;;;-5.31;77.68;96076.78;4972253;28;20121;-44
2021/01/11 04:18:24;;;;;;;64.88;24.08;;;;;;;-5.28;77.34;96076.34;4972829;28;20142;-45
2021/01/11 04:20:51;;;;;;;68.28;25.33;;;;;;;-4.91;76.31;96073.47;4972302;28;20080;-45
2021/01/11 04:23:17;;;;;;;65.00;26.25;;;;;;;-5.03;76.05;96070.84;4972341;28;20082;-44
2021/01/11 04:25:44;;;;;;;59.58;25.67;;;;;;;-4.88;75.03;96070.34;4972280;28;20055;-44
2021/01/11 04:28:10;;;;;;;66.47;25.83;;;;;;;-5.13;76.45;96070.63;4972545;28;20063;-45
2021/01/11 04:30:37;;;;;;;72.22;28.13;;;;;;;-5.11;76.88;96079.09;4971736;28;20140;-47
2021/01/11 04:33:03;;;;;;;73.13;27.05;;;;;;;-4.95;77.11;96075.75;4971922;28;20130;-46
2021/01/11 04:35:30;;;;;;;75.90;26.77;;;;;;;-4.72;76.61;96074.94;4972101;28;20110;-45
2021/01/11 04:37:57;;;;;;;66.70;25.20;;;;;;;-4.65;76.89;96074.78;4972431;28;20171;-45
2021/01/11 04:40:24;;;;;;;65.55;24.00;;;;;;;-4.54;75.35;96070.56;4971819;28;20101;-47
2021/01/11 04:42:56;;;;;;;64.75;25.50;;;;;;;-4.50;75.98;96076.97;4972418;28;20101;-45
2021/01/11 04:45:24;;;;;;;62.70;25.13;;;;;;;-4.58;75.09;96086.06;4991423;28;20500;-45
2021/01/11 04:47:54;;;;;;;61.05;24.60;;;;;;;-4.45;76.11;96079.72;4987934;28;20054;-45
2021/01/11 04:50:22;;;;;;;57.70;23.15;;;;;;;-4.23;75.34;96078.03;4975591;28;20073;-45
2021/01/11 04:52:49;;;;;;;55.47;23.15;;;;;;;-4.42;76.16;96062.59;4975556;28;20058;-47
2021/01/11 04:55:16;;;;;;;56.78;20.92;;;;;;;-4.19;75.85;96073.09;4975557;28;20082;-45
2021/01/11 04:57:49;;;;;;;50.42;20.73;;;;;;;-4.06;75.53;96066.72;4975540;28;20500;-45
2021/01/11 05:00:19;;;;;;;53.75;20.98;;;;;;;-3.88;75.21;96081.56;4975216;28;20054;-45
2021/01/11 05:02:46;;;;;;;53.13;20.83;;;;;;;-3.89;74.70;96072.06;4975313;28;20055;-45
2021/01/11 05:05:13;;;;;;;56.67;20.67;;;;;;;-3.78;74.79;96071.19;4975370;28;20050;-47
2021/01/11 05:07:39;;;;;;;52.83;22.15;;;;;;;-3.76;74.28;96075.19;4975649;28;20094;-44
2021/01/11 05:10:09;;;;;;;53.35;20.25;;;;;;;-3.68;74.29;96071.34;4974650;28;20126;-45
2021/01/11 05:12:35;;;;;;;50.50;20.77;;;;;;;-3.61;74.04;96064.06;4975095;28;20089;-46
2021/01/11 05:15:14;;;;;;;52.47;20.77;;;;;;;-3.65;74.07;96068.22;4975378;28;20421;-45
2021/01/11 05:17:44;;;;;;;49.08;20.73;;;;;;;-3.56;74.02;96080.03;4975184;28;20070;-45
2021/01/11 05:20:12;;;;;;;50.67;20.30;;;;;;;-3.54;73.85;96085.09;4975046;28;20106;-46
2021/01/11 05:22:50;;;;;;;50.45;20.83;;;;;;;-3.49;73.80;96084.38;4975015;28;20078;-45
2021/01/11 05:25:18;;;;;;;50.33;20.13;;;;;;;-3.53;73.75;96081.41;4957577;28;20506;-47
2021/01/11 05:28:03;;;;;;;53.53;20.58;;;;;;;-3.55;73.46;96083.47;4974854;28;20046;-47
2021/01/11 05:30:34;;;;;;;48.38;20.75;;;;;;;-3.43;73.57;96081.56;4974642;28;20133;-45
2021/01/11 05:33:00;;;;;;;44.80;18.27;;;;;;;-3.80;73.11;96055.56;4974735;28;20106;-48
2021/01/11 05:35:27;;;;;;;51.70;20.25;;;;;;;-3.78;73.96;96085.19;4974757;28;20374;-45
2021/01/11 05:37:54;;;;;;;47.67;20.00;;;;;;;-3.97;73.90;96080.34;4974857;28;20050;-45
2021/01/11 05:40:24;;;;;;;57.88;22.23;;;;;;;-4.15;74.98;96063.66;4974262;28;20134;-45
2021/01/11 05:42:58;;;;;;;52.40;20.73;;;;;;;-3.81;74.65;96090.16;4975119;28;20054;-44
2021/01/11 05:45:33;;;;;;;51.22;20.92;;;;;;;-3.77;74.89;96101.84;4978537;28;20050;-45
2021/01/11 05:48:10;;;;;;;51.95;20.83;;;;;;;-3.67;74.67;96104.72;4974438;28;20063;-45
2021/01/11 05:50:48;;;;;;;48.20;20.30;;;;;;;-3.62;74.11;96110.06;4974581;28;20074;-46
2021/01/11 05:53:18;;;;;;;53.28;22.20;;;;;;;-3.56;74.27;96114.41;4974487;28;20506;-45
2021/01/11 05:55:45;;;;;;;56.80;22.10;;;;;;;-3.57;74.08;96112.81;4957162;28;20054;-49
2021/01/11 05:58:12;;;;;;;53.67;21.27;;;;;;;-3.45;73.82;96117.22;4990487;28;20819;-46
2021/01/11 06:00:40;;;;;;;51.03;21.13;;;;;;;-3.49;73.41;96124.03;4992362;28;20164;-47
2021/01/11 06:03:09;;;;;;;58.33;23.63;;;;;;;-3.47;73.81;96127.25;4992295;28;20081;-47
2021/01/11 06:05:36;;;;;;;50.60;20.40;;;;;;;-3.68;73.54;96140.09;4982679;28;20141;-45
2021/01/11 06:08:05;;;;;;;56.67;21.60;;;;;;;-3.61;73.82;96132.81;4973717;28;20134;-46
2021/01/11 06:10:32;;;;;;;51.88;21.88;;;;;;;-4.20;73.86;96136.72;4973796;28;20105;-44
2021/01/11 06:12:58;;;;;;;52.30;20.98;;;;;;;-4.81;76.71;96138.84;4974413;28;20051;-44
2021/01/11 06:15:26;;;;;;;57.58;22.00;;;;;;;-4.58;76.49;96128.31;4991195;28;20117;-43
2021/01/11 06:17:57;;;;;;;65.05;23.40;;;;;;;-4.64;76.42;96118.66;4993248;28;20073;-45
2021/01/11 06:20:27;;;;;;;64.43;23.63;;;;;;;-4.87;77.07;96129.25;4976409;28;20058;-46
2021/01/11 06:22:54;;;;;;;60.88;23.17;;;;;;;-5.04;77.54;96124.63;4973995;28;20109;-45
2021/01/11 06:25:20;;;;;;;73.45;26.60;;;;;;;-4.88;77.28;96117.84;4974588;28;20054;-44
2021/01/11 06:28:05;;;;;;;65.80;23.70;;;;;;;-4.87;78.07;96118.69;4956950;28;20051;-45
2021/01/11 06:30:38;;;;;;;72.78;25.45;;;;;;;-4.75;77.06;96120.25;4973496;28;20097;-45
2021/01/11 06:33:07;;;;;;;67.13;24.23;;;;;;;-4.53;76.04;96115.19;4973706;28;20058;-46
2021/01/11 06:35:39;;;;;;;64.82;25.17;;;;;;;-4.51;76.60;96114.97;4973589;28;20074;-47
2021/01/11 06:38:22;;;;;;;71.97;25.67;;;;;;;-4.27;75.93;96113.88;4973323;28;20126;-45
2021/01/11 06:40:54;;;;;;;60.22;23.27;;;;;;;-4.40;75.90;96111.50;4973513;28;20452;-46
2021/01/11 06:43:22;;;;;;;67.47;24.00;;;;;;;-4.95;76.71;96110.06;4960784;28;20092;-44
2021/01/11 06:45:50;;;;;;;70.93;24.85;;;;;;;-5.19;77.46;96125.09;4981950;28;20488;-43
2021/01/11 06:48:20;;;;;;;67.07;24.20;;;;;;;-4.80;76.58;96129.91;4992733;28;20097;-47
2021/01/11 06:50:49;;;;;;;76.22;25.42;;;;;;;-5.14;77.34;96129.66;4992404;28;20062;-44
2021/01/11 06:53:28;;;;;;;74.38;26.65;;;;;;;-5.26;78.33;96129.66;4959535;28;20061;-45
2021/01/11 06:56:04;;;;;;;65.97;23.52;;;;;;;-5.37;79.27;96134.91;4992915;28;20054;-46
2021/01/11 06:58:36;;;;;;;81.47;27.30;;;;;;;-5.24;78.79;96137.34;4989043;28;20047;-45
2021/01/11 07:01:08;;;;;;;71.97;24.38;;;;;;;-5.20;79.10;96138.47;4977232;28;20055;-43
2021/01/11 07:03:48;;;;;;;70.85;24.00;;;;;;;-5.08;78.48;96118.19;4973386;28;20055;-46
2021/01/11 07:06:44;;;;;;;69.82;23.35;;;;;;;-5.06;77.60;96137.25;4991088;28;20050;-46
2021/01/11 07:09:17;;;;;;;73.22;23.55;;;;;;;-4.89;77.15;96147.13;4956782;28;20507;-46
2021/01/11 07:11:45;;;;;;;66.60;21.98;;;;;;;-4.89;77.20;96141.84;4954999;28;20051;-46
2021/01/11 07:14:13;;;;;;;67.60;24.60;;;;;;;-4.76;77.30;96133.69;4976333;28;20077;-45
2021/01/11 07:16:44;;;;;;;63.90;24.02;;;;;;;-5.07;77.57;96151.50;4988358;28;20566;-45
2021/01/11 07:19:19;;;;;;;65.50;23.42;;;;;;;-4.89;77.34;96152.41;4980104;28;20136;-46
2021/01/11 07:21:47;;;;;;;62.55;25.60;;;;;;;-4.92;77.18;96151.03;5008869;28;20407;-46
2021/01/11 07:24:14;;;;;;;66.00;23.60;;;;;;;-5.35;78.56;96153.97;5011070;28;20124;-48
2021/01/11 07:26:40;;;;;;;70.32;24.48;;;;;;;-5.45;79.52;96157.94;5011337;28;20084;-44
2021/01/11 07:29:09;;;;;;;70.18;23.90;;;;;;;-5.80;79.95;96142.00;4996749;28;20396;-47
2021/01/11 07:31:40;;;;;;;67.03;23.73;;;;;;;-5.49;79.92;96166.50;5011709;28;20084;-44
2021/01/11 07:34:10;;;;;;;78.57;26.05;;;;;;;-5.55;79.56;96176.16;5011768;28;20089;-44
2021/01/11 07:36:40;;;;;;;68.35;23.88;;;;;;;-5.92;79.71;96159.59;4989550;28;20110;-43
2021/01/11 07:39:22;;;;;;;72.25;24.42;;;;;;;-6.00;80.93;96176.56;5003472;28;20080;-43
2021/01/11 07:41:55;;;;;;;70.93;24.67;;;;;;;-6.21;81.83;96179.63;5011584;28;20049;-43
2021/01/11 07:44:24;;;;;;;75.65;26.30;;;;;;;-6.04;81.23;96178.03;5009688;28;20511;-43
2021/01/11 07:47:05;;;;;;;69.65;22.50;;;;;;;-6.00;80.74;96178.38;5004093;28;20465;-45
2021/01/11 07:49:58;;;;;;;67.13;23.73;;;;;;;-5.57;79.62;96180.81;4991430;28;20138;-48
2021/01/11 07:52:25;;;;;;;68.37;23.43;;;;;;;-5.24;77.90;96177.69;4979148;28;20078;-43
2021/01/11 07:54:57;;;;;;;64.10;23.17;;;;;;;-5.09;78.21;96177.28;4989781;28;20085;-45
2021/01/11 07:57:26;;;;;;;73.85;25.55;;;;;;;-4.67;76.43;96173.78;4991780;28;20070;-44
2021/01/11 08:00:10;;;;;;;64.50;24.17;;;;;;;-4.38;75.71;96169.38;4990743;28;20056;-43
2021/01/11 08:02:47;;;;;;;62.20;24.92;;;;;;;-4.25;75.07;96164.66;4991626;28;20464;-46
2021/01/11 08:05:24;;;;;;;63.28;24.75;;;;;;;-4.05;74.81;96163.47;4991559;28;20053;-45
2021/01/11 08:08:05;;;;;;;67.40;24.02;;;;;;;-4.04;74.72;96163.22;4983735;28;20404;-47
2021/01/11 08:10:33;;;;;;;65.82;24.17;;;;;;;-4.01;74.30;96172.53;4990219;28;20141;-45
2021/01/11 08:13:12;;;;;;;63.17;23.58;;;;;;;-4.04;74.41;96179.06;4991749;28;20148;-49
2021/01/11 08:15:39;;;;;;;61.90;23.85;;;;;;;-4.03;74.88;96177.22;4983263;28;20101;-46
2021/01/11 08:18:06;;;;;;;70.90;23.83;;;;;;;-3.81;73.75;96180.03;4974061;28;20054;-44
2021/01/11 08:20:32;;;;;;;67.70;24.65;;;;;;;-3.94;73.50;96178.47;4974418;28;20424;-44
2021/01/11 08:23:08;;;;;;;56.67;21.40;;;;;;;-3.83;73.26;96176.84;4992419;28;20144;-45
2021/01/11 08:25:36;;;;;;;64.75;24.58;;;;;;;-4.18;74.44;96172.44;4992483;28;20132;-47
2021/01/11 08:28:04;;;;;;;67.25;24.38;;;;;;;-4.56;75.43;96191.44;4988748;28;20104;-44
2021/01/11 08:30:31;;;;;;;64.28;25.05;;;;;;;-4.72;77.08;96179.72;4975836;28;20144;-45
2021/01/11 08:32:58;;;;;;;69.75;25.02;;;;;;;-4.62;76.32;96181.78;4987886;28;20075;-47
2021/01/11 08:35:25;;;;;;;66.20;24.42;;;;;;;-4.36;76.13;96172.59;4994899;28;20504;-46
2021/01/11 08:37:59;;;;;;;69.50;24.70;;;;;;;-4.14;75.42;96173.56;4983642;28;20042;-45
2021/01/11 08:40:28;;;;;;;70.97;25.85;;;;;;;-4.39;76.88;96178.31;4990585;28;20053;-46
2021/01/11 08:43:07;;;;;;;62.67;23.73;;;;;;;-4.46;76.34;96168.69;4987106;28;20082;-42
2021/01/11 08:45:33;;;;;;;67.18;25.05;;;;;;;-4.14;75.60;96193.91;4995524;28;20054;-42
2021/01/11 08:48:02;;;;;;;66.47;24.08;;;;;;;-3.78;74.77;96193.59;4977579;28;20046;-43
2021/01/11 08:50:30;;;;;;;57.10;24.00;;;;;;;-3.60;73.85;96197.13;4981085;28;20046;-44
2021/01/11 08:52:57;;;;;;;53.90;21.73;;;;;;;-3.50;71.94;96199.16;4994411;28;20507;-42
2021/01/11 08:55:24;;;;;;;56.25;22.15;;;;;;;-3.38;71.65;96194.59;4982824;28;20050;-44
2021/01/11 08:57:58;;;;;;;49.35;21.20;;;;;;;-3.26;70.37;96195.34;4981901;28;20054;-44
2021/01/11 09:00:25;;;;;;;48.33;20.73;;;;;;;-3.52;71.58;96200.16;4965468;28;20058;-42
2021/01/11 09:02:53;;;;;;;56.53;21.95;;;;;;;-3.53;73.18;96193.28;4983979;28;20090;-44
2021/01/11 09:05:26;;;;;;;49.58;21.48;;;;;;;-3.46;71.99;96208.22;4984435;28;20123;-44
2021/01/11 09:07:53;;;;;;;;;;;;;;;-3.31;70.89;96204.00;4981983;28;20180;-45
2021/01/11 09:10:34;;;;;;;49.53;21.00;;;;;;;-3.45;70.49;96194.72;4984461;28;19928;-45
2021/01/11 09:13:18;;;;;;;51.10;21.10;;;;;;;-3.77;72.13;96202.31;4958223;28;20085;-42
2021/01/11 09:15:45;;;;;;;56.55;22.65;;;;;;;-3.56;71.27;96206.19;4979628;28;20081;-43
2021/01/11 09:18:14;;;;;;;52.60;22.00;;;;;;;-3.38;70.84;96210.47;4980904;28;20809;-43
2021/01/11 09:20:43;;;;;;;52.42;23.80;;;;;;;-3.26;70.65;96207.78;4964620;28;20055;-44
2021/01/11 09:23:10;;;;;;;51.30;21.30;;;;;;;-3.29;70.11;96209.84;4975602;28;20154;-43
2021/01/11 09:25:40;;;;;;;46.97;19.67;;;;;;;-3.25;69.46;96204.91;4978157;28;20050;-44
2021/01/11 09:28:09;;;;;;;54.72;22.08;;;;;;;-3.11;69.40;96222.06;4983881;28;20042;-43
2021/01/11 09:30:36;;;;;;;50.53;21.23;;;;;;;-3.12;69.22;96207.25;4982975;28;20073;-42
2021/01/11 09:33:04;;;;;;;49.53;20.92;;;;;;;-3.29;69.30;96214.34;4979518;28;20061;-43
2021/01/11 09:35:30;;;;;;;61.60;21.70;;;;;;;-3.54;70.15;96244.59;4978769;28;20492;-44
2021/01/11 09:37:57;;;;;;;43.72;20.48;;;;;;;-3.47;69.56;96235.72;4974181;28;20140;-43
2021/01/11 09:40:24;;;;;;;54.25;21.45;;;;;;;-4.05;72.27;96227.69;4970539;28;20050;-41
2021/01/11 09:42:51;;;;;;;49.85;21.20;;;;;;;-4.30;72.85;96238.50;4974490;28;20066;-45
2021/01/11 09:45:18;;;;;;;51.10;20.45;;;;;;;-4.36;73.96;96241.25;4981453;28;20077;-43
2021/01/11 09:47:45;;;;;;;50.38;21.23;;;;;;;-3.94;72.71;96230.53;4982439;28;20559;-43
2021/01/11 09:50:13;;;;;;;51.35;21.73;;;;;;;-3.74;71.74;96238.06;4985511;28;20412;-44
2021/01/11 09:52:39;;;;;;;48.15;20.73;;;;;;;-3.60;71.51;96232.28;4979462;28;20154;-44
2021/01/11 09:55:07;;;;;;;48.47;19.95;;;;;;;-3.41;70.93;96232.09;4983053;28;20070;-44
2021/01/11 09:57:37;;;;;;;49.10;21.02;;;;;;;-3.26;70.01;96228.94;4978851;28;20152;-43
2021/01/11 10:00:14;;;;;;;49.53;20.90;;;;;;;-3.12;69.93;96224.94;4985137;28;20065;-44
2021/01/11 10:02:48;;;;;;;53.28;22.02;;;;;;;-3.08;69.86;96231.41;4982355;28;20089;-43
2021/01/11 10:05:17;;;;;;;55.65;21.75;;;;;;;-3.29;70.46;96222.28;4980849;28;20082;-41
2021/01/11 10:07:47;;;;;;;58.45;24.58;;;;;;;-3.35;70.84;96221.41;4988750;28;20428;-41
2021/01/11 10:10:14;;;;;;;48.63;21.42;;;;;;;-3.12;70.30;96220.47;4980270;28;20128;-41
2021/01/11 10:12:40;;;;;;;45.72;21.67;;;;;;;-3.06;69.93;96224.00;4983549;28;20042;-43
2021/01/11 10:15:08;;;;;;;48.85;20.83;;;;;;;-2.90;69.48;96219.78;4981767;28;20061;-42
2021/01/11 10:17:36;;;;;;;49.78;21.20;;;;;;;-2.83;69.16;96220.41;4965553;28;20086;-44
2021/01/11 10:20:06;;;;;;;46.70;21.42;;;;;;;-2.99;69.18;96214.09;4980392;28;21029;-43
2021/01/11 10:22:36;;;;;;;44.97;20.80;;;;;;;-2.99;69.23;96218.56;4981057;28;20509;-43
2021/01/11 10:25:03;;;;;;;48.85;20.70;;;;;;;-3.15;69.71;96198.97;4987129;28;20468;-43
2021/01/11 10:27:30;;;;;;;48.60;20.58;;;;;;;-2.92;68.96;96211.28;4972208;28;20055;-43
2021/01/11 10:29:56;;;;;;;42.28;18.48;;;;;;;-3.43;70.72;96207.75;4988639;28;20066;-43
2021/01/11 10:32:23;;;;;;;47.50;19.45;;;;;;;-3.19;70.02;96203.13;4993367;28;20121;-43
2021/01/11 10:34:49;;;;;;;49.83;21.15;;;;;;;-3.16;69.73;96194.72;4989255;28;20488;-43
2021/01/11 10:37:16;;;;;;;53.38;21.15;;;;;;;-3.09;69.33;96195.34;4984049;28;20585;-43
2021/01/11 10:39:43;;;;;;;46.30;21.00;;;;;;;-3.11;69.43;96194.81;4988386;28;20066;-44
2021/01/11 10:42:09;;;;;;;48.50;20.23;;;;;;;-3.03;69.14;96193.59;4985832;28;20137;-45
2021/01/11 10:44:36;;;;;;;44.38;19.23;;;;;;;-3.07;69.13;96193.28;4976939;28;20051;-43
2021/01/11 10:47:02;;;;;;;44.17;19.95;;;;;;;-3.24;69.32;96185.34;4967641;28;20042;-42
2021/01/11 10:49:29;;;;;;;45.95;20.40;;;;;;;-3.16;68.90;96170.91;4987743;28;20075;-42
2021/01/11 10:51:57;;;;;;;56.65;22.83;;;;;;;-3.41;70.51;96189.78;4985926;28;20512;-42
2021/01/11 10:54:25;;;;;;;50.45;20.48;;;;;;;-3.54;70.80;96186.41;4978888;28;20053;-41
2021/01/11 10:56:52;;;;;;;51.83;22.88;;;;;;;-3.80;72.19;96171.09;4990107;28;20099;-42
2021/01/11 10:59:20;;;;;;;50.00;21.42;;;;;;;-4.09;72.96;96164.97;5001594;28;20096;-43
2021/01/11 11:01:49;;;;;;;57.85;22.45;;;;;;;-4.23;74.43;96152.00;4991372;28;20150;-43
2021/01/11 11:04:16;;;;;;;56.83;22.27;;;;;;;-4.00;74.33;96161.72;4989441;28;20061;-45
2021/01/11 11:06:43;;;;;;;49.70;21.13;;;;;;;-3.63;72.58;96155.28;4991631;28;20046;-43
2021/01/11 11:09:10;;;;;;;49.78;21.55;;;;;;;-3.48;72.79;96154.72;4989264;28;20045;-44
2021/01/11 11:11:37;;;;;;;55.45;20.75;;;;;;;-3.41;72.16;96142.16;4984774;28;20520;-47
2021/01/11 11:14:03;;;;;;;46.38;18.45;;;;;;;-3.99;72.13;96146.66;4984272;28;20047;-46
2021/01/11 11:16:30;;;;;;;49.33;19.30;;;;;;;-4.34;74.39;96144.09;4983859;28;20526;-50
2021/01/11 11:18:56;;;;;;;45.22;19.23;;;;;;;-4.56;74.68;96136.78;4983389;28;21056;-47
2021/01/11 11:21:23;;;;;;;46.38;18.83;;;;;;;-4.94;74.63;96126.69;4986524;28;20061;-46
2021/01/11 11:23:50;;;;;;;45.53;18.58;;;;;;;-4.94;75.39;96145.16;4985529;28;20076;-48
2021/01/11 11:26:20;;;;;;;46.00;18.50;;;;;;;-4.75;75.67;96140.56;4987567;28;20058;-45